Date,TemperatureHighF,TemperatureAvgF,TemperatureLowF,DewpointHighF,DewpointAvgF,DewpointLowF,HumidityHigh,HumidityAvg,HumidityLow,PressureMaxIn,PressureMinIn,WindSpeedMaxMPH,WindSpeedAvgMPH,GustSpeedMaxMPH,PrecipitationSumIn
2013-4-1,51.3,39.6,28.9,42.5,32.2,15.8,87,76,54,29.77,29.51,13,3,0,0.00
2013-4-2,33.8,29.2,24.8,17.5,14.7,12.8,64,55,46,29.87,29.74,14,4,0,0.00
2013-4-3,37.9,30.5,24.1,16.0,12.8,10.3,62,48,34,30.08,29.85,13,4,0,0.00
2013-4-4,46.9,35.5,25.3,21.3,16.9,12.9,61,47,35,30.25,29.96,10,2,0,0.00
2013-4-5,51.4,40.5,32.4,27.9,23.4,18.4,66,51,35,29.96,29.67,14,3,0,0.00
2013-4-6,37.6,30.6,24.3,18.3,10.2,6.2,58,43,30,30.30,29.86,12,3,0,0.00
2013-4-7,51.8,37.4,24.4,30.4,20.6,9.5,66,51,39,30.30,29.94,15,4,0,0.00
2013-4-8,55.6,45.6,36.2,35.6,32.5,29.4,80,61,40,30.09,29.93,15,1,0,0.00
2013-4-9,58.1,48.4,40.2,47.6,38.7,32.1,83,70,54,30.07,29.88,9,1,0,0.00
2013-4-10,54.1,47.3,42.6,47.8,42.1,36.6,88,82,72,29.99,29.88,3,0,0,0.00
2013-4-11,44.1,40.2,35.4,40.4,34.2,27.4,89,79,60,30.13,29.85,6,1,0,0.00
2013-4-12,36.1,32.1,30.6,29.6,27.9,26.3,88,84,76,30.19,29.82,6,1,0,0.00
2013-4-13,45.5,38.0,31.1,39.1,33.5,28.0,88,84,73,29.93,29.78,6,0,0,0.00
2013-4-14,46.6,40.1,33.0,35.4,32.0,26.6,86,73,56,30.19,29.89,8,1,0,0.00
2013-4-15,55.8,41.3,29.4,39.4,32.0,24.5,83,70,54,30.36,30.19,17,0,0,0.00
2013-4-16,62.6,47.9,34.9,47.2,39.0,29.0,81,72,54,30.36,30.03,13,3,0,0.00
2013-4-17,64.9,50.5,39.9,47.9,34.5,27.0,83,56,34,30.32,30.04,7,1,0,0.00
2013-4-18,58.9,46.4,32.4,38.7,31.4,23.7,77,57,46,30.42,30.14,10,2,0,0.00
2013-4-19,68.2,58.5,47.3,56.9,50.3,35.0,86,75,62,30.14,29.63,18,5,0,0.00
2013-4-20,60.3,46.7,35.8,56.7,37.4,22.0,88,71,42,30.19,29.63,7,2,0,0.00
2013-4-21,63.1,38.0,30.3,30.4,21.1,18.8,68,52,29,30.64,30.20,7,1,0,0.00
2013-4-22,59.1,39.0,29.5,31.8,24.9,18.8,71,58,35,30.75,30.58,9,1,0,0.00
2013-4-23,38.1,35.1,30.6,33.6,29.6,23.8,86,80,72,30.58,30.15,5,0,0,0.00
2013-4-24,81.5,52.7,37.4,50.4,41.6,33.6,87,69,33,30.13,29.78,16,2,0,0.00
2013-4-25,73.8,50.8,40.5,45.5,34.1,25.5,78,54,26,30.27,29.78,10,2,0,0.00
2013-4-26,57.2,45.9,32.0,36.9,30.7,22.7,79,56,44,30.41,30.27,3,0,0,0.00
2013-4-27,65.3,48.8,33.4,39.7,33.8,26.0,78,58,38,30.41,30.27,5,0,0,0.00
2013-4-28,75.2,51.4,35.6,46.0,36.1,28.0,76,57,32,30.32,30.20,6,0,0,0.00
2013-4-29,68.3,53.2,40.5,45.7,37.5,30.0,71,56,41,30.25,30.17,6,1,0,0.00
2013-4-30,81.5,56.3,43.7,44.7,34.5,27.3,62,45,26,30.37,30.25,5,0,0,0.01